Time;durP1;ratioP1;P1;durP2;ratioP2;P2;SDS_P1;SDS_P2;PMS_P1;PMS_P2;Temp;Humidity;BMP_temperature;BMP_pressure;BME280_temperature;BME280_humidity;BME280_pressure;Samples;Min_cycle;Max_cycle;Signal;HPM_P1;HPM_P2
2021/12/24 00:01:22;;;;;;;16.45;11.40;;;;;;;4.39;48.38;99702.51;1793604;78;21026;-61
2021/12/24 00:03:48;;;;;;;15.98;12.28;;;;;;;4.40;48.32;99695.44;1788937;78;21015;-61
2021/12/24 00:06:15;;;;;;;15.10;11.38;;;;;;;4.39;48.32;99709.58;1791976;78;21097;-62
2021/12/24 00:08:47;;;;;;;15.75;11.48;;;;;;;4.38;48.26;99703.45;1791497;78;21543;-62
2021/12/24 00:11:11;;;;;;;13.28;10.50;;;;;;;4.38;48.23;99691.62;1790348;80;21039;-60
2021/12/24 00:13:41;;;;;;;14.65;11.38;;;;;;;4.37;48.19;99681.25;1788766;78;23429;-62
2021/12/24 00:16:24;;;;;;;12.47;10.38;;;;;;;4.33;48.15;99678.88;1789057;79;21033;-62
2021/12/24 00:18:57;;;;;;;14.28;11.10;;;;;;;4.36;48.13;99681.71;1765910;80;21061;-62
2021/12/24 00:35:12;;;;;;;14.00;10.40;;;;;;;4.30;47.99;99647.55;1758071;81;21073;-62
2021/12/24 00:37:34;;;;;;;12.85;10.23;;;;;;;4.28;47.98;99648.66;1750388;80;21044;-63
2021/12/24 00:40:19;;;;;;;12.85;9.95;;;;;;;4.27;47.96;99635.17;1762103;81;21170;-62
2021/12/24 00:42:46;;;;;;;15.18;10.72;;;;;;;4.27;47.94;99632.05;1787337;80;21541;-62
2021/12/24 00:45:15;;;;;;;12.85;9.78;;;;;;;4.26;47.93;99631.69;1759266;79;21144;-62
2021/12/24 00:47:43;;;;;;;14.33;10.10;;;;;;;4.26;47.91;99624.29;1778227;80;20984;-63
2021/12/24 00:50:15;;;;;;;14.38;10.23;;;;;;;4.25;47.86;99614.72;1774579;78;21608;-62
2021/12/24 00:52:48;;;;;;;12.55;9.75;;;;;;;4.25;47.85;99614.72;1782944;80;21465;-60
2021/12/24 00:55:21;;;;;;;14.03;10.95;;;;;;;4.25;47.81;99602.89;1759331;80;21052;-61
2021/12/24 00:57:54;;;;;;;13.88;11.20;;;;;;;4.25;47.79;99608.15;1755754;81;21269;-62
2021/12/24 01:00:34;;;;;;;14.50;10.10;;;;;;;4.26;47.76;99600.62;1791125;80;21025;-62
2021/12/24 01:03:02;;;;;;;12.18;9.93;;;;;;;4.25;47.73;99592.37;1740775;81;20984;-62
2021/12/24 01:05:30;;;;;;;12.60;9.68;;;;;;;4.25;47.70;99575.27;1757371;81;21107;-61
2021/12/24 01:07:57;;;;;;;12.23;9.65;;;;;;;4.25;47.68;99577.91;1782464;80;21481;-62
2021/12/24 01:10:30;;;;;;;12.93;10.15;;;;;;;4.24;47.67;99579.71;1778312;80;21067;-61
2021/12/24 01:12:56;;;;;;;13.78;10.20;;;;;;;4.24;47.66;99568.37;1745220;80;21080;-61
2021/12/24 01:15:23;;;;;;;12.30;9.15;;;;;;;4.24;47.63;99565.73;1772267;79;21060;-61
2021/12/24 01:18:02;;;;;;;13.53;10.40;;;;;;;4.24;47.61;99564.42;1792834;78;22342;-61
2021/12/24 01:43:26;;;;;;;11.78;9.43;;;;;;;4.20;47.33;99491.54;1789813;79;21150;-61
2021/12/24 01:45:55;;;;;;;14.20;9.85;;;;;;;4.20;47.28;99481.52;1800760;79;20991;-61
2021/12/24 01:48:21;;;;;;;12.75;10.30;;;;;;;4.20;47.26;99477.57;1790836;79;21604;-62
2021/12/24 01:50:49;;;;;;;11.80;9.60;;;;;;;4.20;47.24;99478.88;1792548;79;21050;-61
2021/12/24 01:53:18;;;;;;;10.80;9.40;;;;;;;4.20;47.19;99471.00;1785923;79;21092;-63
2021/12/24 01:55:48;;;;;;;11.70;9.40;;;;;;;4.20;47.18;99472.31;1785785;79;21771;-61
2021/12/24 01:58:21;;;;;;;11.70;8.73;;;;;;;4.20;47.16;99459.16;1796641;79;21072;-62
2021/12/24 02:00:50;;;;;;;10.23;8.63;;;;;;;4.20;47.12;99459.16;1800239;79;21485;-61
2021/12/24 02:03:18;;;;;;;12.30;9.50;;;;;;;4.20;47.09;99444.70;1786455;79;21088;-61
2021/12/24 02:05:45;;;;;;;10.65;8.38;;;;;;;4.19;47.06;99435.14;1798000;79;21025;-62
2021/12/24 02:08:12;;;;;;;11.90;9.13;;;;;;;4.19;47.04;99435.14;1795938;79;21203;-62
2021/12/24 02:10:40;;;;;;;13.68;9.73;;;;;;;4.14;47.03;99425.86;1806395;79;21025;-60
2021/12/24 02:13:06;;;;;;;13.25;9.83;;;;;;;4.19;46.99;99428.10;1803807;79;21037;-61
2021/12/24 02:15:59;;;;;;;12.13;9.90;;;;;;;4.18;46.98;99419.03;1777385;79;21071;-60
2021/12/24 02:29:12;;;;;;;11.40;9.05;;;;;;;4.13;46.91;99391.81;1782474;80;21552;-60
2021/12/24 02:31:39;;;;;;;11.70;9.50;;;;;;;4.12;46.87;99388.85;1773091;80;21592;-61
2021/12/24 02:34:06;;;;;;;12.78;9.68;;;;;;;4.12;46.87;99384.91;1751173;80;21118;-64
2021/12/24 02:36:32;;;;;;;12.73;9.40;;;;;;;4.10;46.83;99385.03;1782459;79;20994;-62
2021/12/24 02:38:59;;;;;;;12.23;9.10;;;;;;;4.11;46.79;99375.34;1789973;80;21481;-61
2021/12/24 02:41:25;;;;;;;12.98;8.80;;;;;;;4.10;46.78;99377.15;1781337;79;21049;-61
2021/12/24 02:43:53;;;;;;;11.90;9.20;;;;;;;4.10;46.75;99369.75;1798213;78;21033;-60
2021/12/24 02:46:33;;;;;;;12.28;9.30;;;;;;;4.11;46.74;99370.08;1785907;78;22314;-61
2021/12/24 02:54:11;;;;;;;12.50;9.05;;;;;;;4.10;46.64;99359.23;1782488;80;20990;-61
2021/12/24 02:56:39;;;;;;;11.20;8.43;;;;;;;4.08;46.61;99362.00;1793967;78;21540;-61
2021/12/24 02:59:13;;;;;;;10.10;8.45;;;;;;;4.08;46.59;99354.11;1812013;78;21129;-61
2021/12/24 03:01:43;;;;;;;10.32;7.95;;;;;;;4.09;46.57;99354.94;1783486;80;21013;-61
2021/12/24 03:04:10;;;;;;;11.08;8.95;;;;;;;4.07;46.54;99356.38;1782430;78;21067;-60
2021/12/24 03:06:44;;;;;;;13.28;9.50;;;;;;;4.08;46.52;99342.28;1796818;78;20990;-62
2021/12/24 03:09:13;;;;;;;;;;;;;;;4.07;46.48;99336.66;1777553;80;21038;-60
2021/12/24 03:11:40;;;;;;;11.55;8.60;;;;;;;4.06;46.45;99324.50;1796779;78;21140;-62
2021/12/24 03:14:08;;;;;;;12.25;8.83;;;;;;;4.03;46.48;99326.08;1814049;78;21045;-60
2021/12/24 03:16:37;;;;;;;10.88;8.38;;;;;;;4.02;46.49;99337.58;1803264;78;21545;-60
2021/12/24 03:19:05;;;;;;;11.45;8.68;;;;;;;4.02;46.45;99313.91;1793318;79;21122;-60
2021/12/24 03:21:38;;;;;;;10.70;8.10;;;;;;;4.02;46.42;99299.45;1787953;78;21282;-61
2021/12/24 03:26:37;;;;;;;13.18;9.33;;;;;;;4.02;46.36;99288.95;1789660;79;21029;-61
2021/12/24 03:29:07;;;;;;;10.90;8.58;;;;;;;4.02;46.34;99287.63;1789810;79;21045;-62
2021/12/24 03:31:33;;;;;;;10.72;8.55;;;;;;;4.01;46.30;99278.07;1746725;80;21015;-61
2021/12/24 03:34:00;;;;;;;11.80;8.48;;;;;;;4.02;46.30;99286.31;1817639;78;21034;-61
2021/12/24 03:36:26;;;;;;;10.98;8.08;;;;;;;4.00;46.26;99273.80;1816361;78;21107;-62
2021/12/24 03:38:54;;;;;;;12.37;8.93;;;;;;;4.00;46.23;99275.11;1782429;78;21005;-61
2021/12/24 03:41:20;;;;;;;11.85;8.63;;;;;;;4.00;46.21;99269.86;1792416;79;21084;-61
2021/12/24 03:43:47;;;;;;;11.15;8.40;;;;;;;4.00;46.18;99274.26;1774271;80;21920;-60
2021/12/24 03:46:17;;;;;;;11.25;8.20;;;;;;;3.99;46.13;99268.67;1788279;79;21057;-61
2021/12/24 03:48:53;;;;;;;11.75;8.98;;;;;;;3.98;46.12;99271.79;1805741;78;21214;-61
2021/12/24 03:56:31;;;;;;;9.98;7.97;;;;;;;3.97;46.05;99247.77;1791700;80;21017;-61
2021/12/24 03:58:59;;;;;;;10.20;8.10;;;;;;;3.96;46.02;99246.13;1777116;78;21009;-62
2021/12/24 04:01:44;;;;;;;12.65;9.33;;;;;;;3.95;46.00;99247.09;1792066;78;21142;-62
2021/12/24 04:04:27;;;;;;;11.88;9.23;;;;;;;3.94;46.00;99224.41;1762812;80;21029;-61
2021/12/24 04:07:15;;;;;;;12.93;8.65;;;;;;;3.93;45.99;99226.19;1687359;83;21064;-61
2021/12/24 04:10:04;;;;;;;12.47;8.50;;;;;;;3.91;45.98;99218.11;1688566;83;21705;-61
2021/12/24 04:12:35;;;;;;;11.30;8.43;;;;;;;3.91;45.97;99210.23;1751793;80;21024;-61
2021/12/24 04:15:02;;;;;;;10.60;8.25;;;;;;;3.89;45.97;99212.16;1782240;78;21124;-60
2021/12/24 04:17:32;;;;;;;11.10;8.10;;;;;;;3.89;45.95;99205.59;1776839;78;20990;-60
2021/12/24 04:25:30;;;;;;;13.03;8.85;;;;;;;3.88;45.90;99184.21;1786815;78;21532;-62
2021/12/24 04:27:58;;;;;;;11.03;8.43;;;;;;;3.87;45.87;99182.56;1773397;78;21224;-61
2021/12/24 04:30:30;;;;;;;11.90;7.75;;;;;;;3.87;45.85;99183.39;1800464;78;21454;-63
2021/12/24 04:33:12;;;;;;;10.53;7.83;;;;;;;3.87;45.83;99172.05;1813405;78;21021;-61
2021/12/24 04:35:41;;;;;;;12.07;8.88;;;;;;;3.87;45.81;99173.38;1782600;79;20998;-61
2021/12/24 04:38:12;;;;;;;11.85;8.50;;;;;;;3.86;45.79;99171.23;1788225;79;21458;-61
2021/12/24 04:51:39;;;;;;;12.28;8.83;;;;;;;3.83;45.71;99149.16;1790977;78;21061;-61
2021/12/24 05:02:38;;;;;;;12.05;8.25;;;;;;;3.80;45.68;99122.34;1762523;80;21516;-61
2021/12/24 05:04:55;;;;;;;11.05;7.95;;;;;;;3.75;45.67;99117.52;1767150;78;21481;-61
2021/12/24 05:09:56;;;;;;;12.05;8.78;;;;;;;3.77;45.65;99115.58;1773230;79;21033;-62
2021/12/24 05:12:23;;;;;;;13.15;9.55;;;;;;;3.77;45.64;99103.75;1782917;80;22031;-60
2021/12/24 05:14:50;;;;;;;10.40;8.78;;;;;;;3.77;45.64;99100.27;1768518;80;21084;-61
2021/12/24 05:17:32;;;;;;;11.48;8.30;;;;;;;3.76;45.61;99106.02;1758932;80;20993;-61
2021/12/24 05:22:48;;;;;;;12.43;8.48;;;;;;;3.77;45.58;99086.67;1736761;80;21029;-62
2021/12/24 05:25:15;;;;;;;11.43;8.08;;;;;;;3.77;45.57;99088.45;1780948;80;21037;-62
2021/12/24 05:27:42;;;;;;;10.90;8.53;;;;;;;3.76;45.57;99081.06;1766574;80;21085;-62
2021/12/24 05:30:10;;;;;;;12.30;8.78;;;;;;;3.78;45.57;99078.30;1771165;80;21437;-61
2021/12/24 05:32:36;;;;;;;10.98;8.48;;;;;;;3.77;45.56;99085.36;1766794;80;21125;-61
2021/12/24 05:35:05;;;;;;;9.48;7.58;;;;;;;3.77;45.54;99077.94;1777431;80;21505;-61
2021/12/24 05:37:34;;;;;;;11.40;7.92;;;;;;;3.77;45.54;99073.53;1771116;80;21093;-62
2021/12/24 05:40:01;;;;;;;10.38;8.00;;;;;;;3.78;45.51;99078.30;1765352;80;20990;-63
2021/12/24 05:42:31;;;;;;;10.75;8.28;;;;;;;3.78;45.50;99069.10;1778613;80;20998;-62
2021/12/24 05:45:04;;;;;;;10.82;8.23;;;;;;;3.78;45.49;99083.55;1780297;80;23256;-62
2021/12/24 05:47:30;;;;;;;10.68;8.38;;;;;;;3.78;45.48;99083.55;1760329;80;21221;-63
2021/12/24 05:49:58;;;;;;;11.65;8.93;;;;;;;3.78;45.46;99075.17;1776700;80;21106;-61
2021/12/24 05:52:39;;;;;;;13.70;8.28;;;;;;;3.78;45.46;99074.36;1756721;79;21517;-61
2021/12/24 05:55:10;;;;;;;11.55;8.48;;;;;;;3.79;45.45;99072.09;1770382;80;20997;-61
2021/12/24 05:57:38;;;;;;;10.30;8.30;;;;;;;3.79;45.42;99078.16;1783318;80;22367;-61
2021/12/24 06:00:08;;;;;;;10.25;8.20;;;;;;;3.79;45.41;99068.15;1781580;80;21025;-60
2021/12/24 06:02:40;;;;;;;10.95;8.30;;;;;;;3.79;45.42;99069.46;1778456;80;21493;-61
2021/12/24 06:05:07;;;;;;;11.18;8.18;;;;;;;3.80;45.44;99067.16;1784143;80;21060;-61
2021/12/24 06:07:34;;;;;;;11.68;9.08;;;;;;;3.79;45.42;99065.03;1777056;80;21532;-61
2021/12/24 06:10:00;;;;;;;10.38;7.78;;;;;;;3.79;45.40;99072.91;1792030;79;21106;-62
2021/12/24 06:12:27;;;;;;;9.63;8.23;;;;;;;3.79;45.39;99068.97;1799052;79;21056;-63
2021/12/24 06:15:00;;;;;;;9.10;7.67;;;;;;;3.80;45.39;99064.53;1767633;80;21699;-62
2021/12/24 06:17:23;;;;;;;10.60;8.23;;;;;;;3.80;45.39;99056.65;1791666;78;21108;-62
2021/12/24 06:19:50;;;;;;;9.48;7.30;;;;;;;3.80;45.37;99041.70;1770980;80;21057;-63
2021/12/24 06:22:17;;;;;;;10.13;8.00;;;;;;;3.80;45.37;99036.95;1802139;78;22126;-62
2021/12/24 06:24:44;;;;;;;9.60;7.47;;;;;;;3.80;45.37;99031.69;1817972;78;21026;-62
2021/12/24 06:27:10;;;;;;;11.03;8.70;;;;;;;3.81;45.36;99020.22;1818715;78;21061;-62
2021/12/24 06:29:36;;;;;;;11.57;8.88;;;;;;;3.81;45.36;99022.85;1762805;80;21066;-62
2021/12/24 06:32:04;;;;;;;10.05;8.35;;;;;;;3.82;45.35;99020.55;1759072;80;21081;-61
2021/12/24 06:34:31;;;;;;;11.53;8.35;;;;;;;3.82;45.35;99031.88;1786636;79;21113;-61
2021/12/24 06:36:59;;;;;;;10.88;7.70;;;;;;;3.83;45.37;99028.30;1797027;79;22002;-61
2021/12/24 06:39:25;;;;;;;9.98;7.87;;;;;;;3.84;45.35;99016.80;1790332;79;21017;-63
2021/12/24 06:41:53;;;;;;;10.75;8.58;;;;;;;3.85;45.34;99011.08;1786994;79;21033;-63
2021/12/24 06:44:21;;;;;;;10.85;7.85;;;;;;;3.84;45.34;99005.47;1790254;79;21962;-62
2021/12/24 06:46:47;;;;;;;10.95;8.15;;;;;;;3.84;45.33;98997.59;1809305;78;21215;-61
2021/12/24 06:49:14;;;;;;;11.50;8.73;;;;;;;3.84;45.31;98989.70;1798088;78;21635;-62
2021/12/24 06:51:40;;;;;;;12.82;8.93;;;;;;;3.86;45.32;98987.76;1800702;78;21108;-64
2021/12/24 06:54:07;;;;;;;11.43;8.18;;;;;;;3.87;45.33;98974.98;1771016;80;21025;-64
2021/12/24 06:56:34;;;;;;;9.65;7.28;;;;;;;3.87;45.29;98963.97;1780042;78;21064;-63
2021/12/24 06:59:01;;;;;;;10.53;8.60;;;;;;;3.88;45.31;98961.70;1796036;78;21115;-62
2021/12/24 07:01:27;;;;;;;11.43;8.40;;;;;;;3.88;45.26;98966.11;1793744;79;21065;-62
2021/12/24 07:03:55;;;;;;;11.95;8.73;;;;;;;3.89;45.30;98960.71;1801109;78;21021;-63
2021/12/24 07:06:22;;;;;;;10.43;8.30;;;;;;;3.90;45.31;98949.70;1797703;78;21072;-62
2021/12/24 07:08:49;;;;;;;10.20;8.53;;;;;;;3.90;45.30;98952.34;1775915;80;20985;-62
2021/12/24 07:11:15;;;;;;;10.53;8.05;;;;;;;3.91;45.29;98939.55;1787355;80;21730;-62
2021/12/24 07:13:42;;;;;;;12.80;9.38;;;;;;;3.92;45.30;98939.88;1819642;78;21032;-64
2021/12/24 07:16:08;;;;;;;10.50;7.87;;;;;;;3.92;45.29;98935.94;1787789;79;21022;-61
2021/12/24 07:18:36;;;;;;;10.32;8.25;;;;;;;3.94;45.29;98931.39;1770354;79;21010;-62
2021/12/24 07:21:03;;;;;;;10.90;8.35;;;;;;;3.93;45.28;98922.66;1785314;79;21001;-62
2021/12/24 07:23:29;;;;;;;10.63;7.90;;;;;;;3.95;45.27;98918.58;1812220;78;21158;-62
2021/12/24 07:25:56;;;;;;;12.28;8.48;;;;;;;3.96;45.25;98916.30;1803911;78;21021;-62
2021/12/24 07:28:23;;;;;;;11.03;7.37;;;;;;;3.95;45.30;98925.14;1804247;78;21077;-62
2021/12/24 07:30:50;;;;;;;11.18;7.97;;;;;;;3.96;45.78;98908.42;1778133;79;21045;-62
2021/12/24 07:33:16;;;;;;;8.90;7.72;;;;;;;3.97;45.95;98921.88;1760852;80;21122;-63
2021/12/24 07:35:44;;;;;;;9.73;8.05;;;;;;;3.98;46.03;98906.47;1779725;79;21109;-64
2021/12/24 07:38:13;;;;;;;11.28;8.03;;;;;;;4.00;46.03;98902.36;1779060;79;21501;-63
2021/12/24 07:40:41;;;;;;;9.48;7.72;;;;;;;4.00;45.99;98897.95;1792725;79;21021;-62
2021/12/24 07:43:07;;;;;;;10.78;7.62;;;;;;;4.02;45.95;98893.38;1789869;79;21080;-62
2021/12/24 07:45:34;;;;;;;12.05;8.40;;;;;;;4.05;45.95;98890.92;1797111;79;21005;-64
2021/12/24 07:48:11;;;;;;;8.85;7.85;;;;;;;4.05;45.92;98889.61;1794580;79;21091;-62
2021/12/24 07:53:05;;;;;;;10.63;8.00;;;;;;;4.06;45.85;98882.08;1776788;79;21029;-63
2021/12/24 07:55:31;;;;;;;9.55;7.83;;;;;;;4.05;45.82;98883.86;1787084;79;21026;-63
2021/12/24 07:57:58;;;;;;;9.50;7.55;;;;;;;4.06;45.79;98867.63;1782610;79;21500;-63
2021/12/24 08:00:26;;;;;;;10.68;7.75;;;;;;;4.08;45.77;98861.23;1794343;79;21216;-63
2021/12/24 08:02:55;;;;;;;10.03;8.15;;;;;;;4.08;45.77;98865.18;1803344;79;21006;-62
2021/12/24 08:05:24;;;;;;;9.83;7.95;;;;;;;4.10;45.72;98855.84;1794131;79;21102;-62
2021/12/24 08:07:50;;;;;;;10.75;8.18;;;;;;;4.10;45.74;98842.20;1785999;79;21033;-64
2021/12/24 08:10:17;;;;;;;9.43;7.22;;;;;;;4.12;45.71;98844.69;1783225;79;21005;-64
2021/12/24 08:12:44;;;;;;;8.98;7.60;;;;;;;4.12;45.70;98833.67;1778398;79;21960;-64
2021/12/24 08:15:10;;;;;;;9.93;7.83;;;;;;;4.13;45.68;98830.09;1788146;79;21049;-64
2021/12/24 08:17:37;;;;;;;8.80;7.12;;;;;;;4.14;45.66;98817.77;1793783;79;21002;-64
2021/12/24 08:20:06;;;;;;;8.93;7.58;;;;;;;4.14;45.68;98818.58;1783297;79;21093;-66
2021/12/24 08:22:34;;;;;;;9.15;7.60;;;;;;;4.15;45.67;98808.88;1779998;79;21009;-64
2021/12/24 08:25:01;;;;;;;10.68;7.75;;;;;;;4.16;45.66;98803.16;1786456;79;21119;-62
2021/12/24 08:27:28;;;;;;;10.18;7.90;;;;;;;4.17;45.65;98800.85;1789744;79;20978;-65
2021/12/24 08:30:55;;;;;;;10.50;7.70;;;;;;;4.22;45.67;98787.59;1851006;76;26548;-64
2021/12/24 08:33:21;;;;;;;11.00;8.83;;;;;;;4.19;45.66;98788.38;1822462;78;21087;-64
2021/12/24 08:35:48;;;;;;;10.85;8.23;;;;;;;4.21;45.65;98778.54;1815214;78;21852;-61
2021/12/24 08:38:15;;;;;;;10.80;7.83;;;;;;;4.21;45.65;98784.64;1816047;78;21031;-64
2021/12/24 08:40:41;;;;;;;10.43;8.05;;;;;;;4.23;45.63;98768.23;1814430;77;21610;-65
2021/12/24 08:43:07;;;;;;;9.35;7.65;;;;;;;4.24;45.63;98766.42;1808629;78;21028;-65
2021/12/24 08:45:34;;;;;;;12.43;8.90;;;;;;;4.25;45.61;98752.28;1818080;77;21049;-65
2021/12/24 08:48:03;;;;;;;9.90;7.78;;;;;;;4.26;45.60;98744.25;1824749;78;21156;-65
2021/12/24 08:50:30;;;;;;;8.93;7.15;;;;;;;4.26;45.61;98731.59;1817742;78;21561;-66
2021/12/24 08:52:56;;;;;;;11.83;8.45;;;;;;;4.28;45.61;98730.45;1819158;78;21006;-66
2021/12/24 08:55:22;;;;;;;10.80;8.35;;;;;;;4.29;45.64;98730.81;1814118;78;21001;-66
2021/12/24 08:57:49;;;;;;;11.22;8.60;;;;;;;4.31;45.62;98722.77;1811414;77;21049;-67
2021/12/24 09:00:15;;;;;;;8.93;7.30;;;;;;;4.34;45.61;98722.45;1816954;78;21968;-65
2021/12/24 09:02:42;;;;;;;9.95;7.92;;;;;;;4.35;45.59;98704.39;1826687;77;21177;-65
2021/12/24 09:05:10;;;;;;;8.83;7.17;;;;;;;4.38;45.58;98701.94;1827435;77;21068;-63
2021/12/24 09:07:37;;;;;;;9.70;7.45;;;;;;;4.39;45.57;98696.53;1811448;78;20982;-64
2021/12/24 09:10:04;;;;;;;10.30;7.33;;;;;;;4.40;45.55;98682.38;1823045;78;21052;-66
2021/12/24 09:12:30;;;;;;;11.15;8.70;;;;;;;4.42;45.54;98683.05;1818577;78;21118;-67
2021/12/24 09:14:57;;;;;;;11.28;8.33;;;;;;;4.43;45.53;98678.64;1824418;77;21072;-67
2021/12/24 09:17:27;;;;;;;10.63;8.20;;;;;;;4.45;45.48;98664.34;1815354;78;21174;-65
2021/12/24 09:19:54;;;;;;;11.45;7.85;;;;;;;4.47;45.50;98662.88;1813233;77;21064;-63
2021/12/24 09:22:28;;;;;;;9.30;7.83;;;;;;;4.47;45.46;98647.92;1815292;77;21454;-64
2021/12/24 09:24:51;;;;;;;11.93;7.95;;;;;;;4.50;45.45;98645.45;1816371;78;21140;-64
2021/12/24 09:27:18;;;;;;;13.75;7.85;;;;;;;4.52;45.42;98627.74;1822923;77;21084;-66
2021/12/24 09:29:44;;;;;;;12.07;8.23;;;;;;;4.52;45.44;98615.41;1824394;78;21009;-65
2021/12/24 09:32:10;;;;;;;10.78;7.42;;;;;;;4.55;45.42;98625.28;1809802;77;21115;-63
2021/12/24 09:34:36;;;;;;;9.78;7.78;;;;;;;4.57;45.42;98619.38;1812771;78;21781;-64
2021/12/24 09:37:04;;;;;;;10.00;7.83;;;;;;;4.59;45.40;98614.78;1809032;77;21002;-65
2021/12/24 09:39:30;;;;;;;11.93;8.73;;;;;;;4.61;45.40;98615.44;1803873;78;21033;-64
2021/12/24 09:42:00;;;;;;;10.32;8.55;;;;;;;4.64;45.37;98608.06;1814578;78;21006;-65
2021/12/24 09:44:28;;;;;;;10.65;7.75;;;;;;;4.67;45.36;98596.39;1818418;78;21570;-65
2021/12/24 09:46:55;;;;;;;11.73;8.10;;;;;;;4.70;45.33;98589.51;1812951;78;21029;-65
2021/12/24 09:49:22;;;;;;;10.63;7.97;;;;;;;4.74;45.31;98582.94;1816295;77;21134;-65
2021/12/24 09:51:51;;;;;;;11.10;8.08;;;;;;;4.78;45.28;98587.40;1750464;80;21010;-66
2021/12/24 09:54:21;;;;;;;12.63;8.43;;;;;;;4.80;45.25;98571.77;1760360;80;21025;-66
2021/12/24 09:56:48;;;;;;;10.60;8.00;;;;;;;4.83;45.21;98566.20;1744444;81;21092;-65
2021/12/24 09:59:15;;;;;;;9.30;7.45;;;;;;;4.84;45.20;98561.76;1751298;81;21064;-64
2021/12/24 10:01:47;;;;;;;10.03;7.35;;;;;;;4.88;45.18;98559.95;1745347;81;21150;-63
2021/12/24 10:04:17;;;;;;;10.25;7.58;;;;;;;4.90;45.15;98557.98;1744469;81;21600;-64
2021/12/24 10:06:59;;;;;;;9.90;7.75;;;;;;;4.92;45.13;98558.67;1750282;80;21560;-65
2021/12/24 10:09:31;;;;;;;9.05;7.00;;;;;;;4.93;45.13;98541.88;1732219;81;21976;-64
2021/12/24 10:12:05;;;;;;;9.98;7.53;;;;;;;4.95;45.10;98534.33;1754566;80;21073;-64
2021/12/24 10:14:38;;;;;;;8.58;7.33;;;;;;;4.97;45.07;98536.30;1760183;81;21146;-63
2021/12/24 10:17:07;;;;;;;10.75;7.25;;;;;;;4.98;45.07;98536.62;1746931;81;21540;-63
2021/12/24 10:19:46;;;;;;;10.95;8.38;;;;;;;4.99;45.05;98525.94;1726131;81;21347;-64
2021/12/24 10:22:13;;;;;;;11.40;8.00;;;;;;;5.00;45.03;98529.37;1756001;80;20993;-63
2021/12/24 10:24:39;;;;;;;10.35;8.00;;;;;;;5.01;45.01;98513.94;1737963;80;21581;-62
2021/12/24 10:27:05;;;;;;;11.25;8.50;;;;;;;5.02;44.99;98518.20;1743936;81;21038;-62
2021/12/24 10:29:39;;;;;;;9.35;8.00;;;;;;;5.02;44.97;98499.77;1742469;80;21006;-63
2021/12/24 10:32:18;;;;;;;9.65;7.20;;;;;;;5.03;44.95;98495.66;1729483;81;22488;-65
2021/12/24 10:34:45;;;;;;;9.20;7.65;;;;;;;5.04;44.94;98485.95;1724792;81;21062;-64
2021/12/24 10:37:25;;;;;;;8.98;7.12;;;;;;;5.04;44.93;98482.84;1724353;81;22321;-64
2021/12/24 10:39:57;;;;;;;9.20;7.03;;;;;;;5.04;44.90;98483.32;1732740;82;21129;-64
2021/12/24 10:42:31;;;;;;;8.95;7.50;;;;;;;5.05;44.89;98478.40;1726826;81;21006;-62
2021/12/24 10:45:00;;;;;;;9.20;7.53;;;;;;;5.05;44.87;98457.34;1732216;81;21087;-62
2021/12/24 10:47:29;;;;;;;9.78;7.50;;;;;;;5.05;44.84;98449.44;1728379;82;21538;-62
2021/12/24 10:53:11;;;;;;;9.58;7.95;;;;;;;5.05;44.82;98441.55;1735711;82;21951;-63
2021/12/24 10:55:17;;;;;;;10.03;7.30;;;;;;;5.05;44.81;98444.99;1708977;82;21053;-62
2021/12/24 10:57:46;;;;;;;9.55;7.65;;;;;;;5.04;44.80;98430.20;1722509;82;21018;-62
2021/12/24 11:00:27;;;;;;;9.48;7.15;;;;;;;5.06;44.78;98440.55;1727512;81;21014;-63
2021/12/24 11:02:57;;;;;;;9.25;7.65;;;;;;;5.05;44.77;98429.20;1749720;81;21041;-63
2021/12/24 11:05:38;;;;;;;10.20;7.95;;;;;;;5.06;44.76;98424.28;1740567;81;21993;-63
2021/12/24 11:08:18;;;;;;;7.87;6.60;;;;;;;5.05;44.73;98429.20;1718989;82;21612;-63
2021/12/24 11:10:54;;;;;;;9.38;7.22;;;;;;;5.06;44.72;98411.12;1739390;81;21112;-63
2021/12/24 11:13:32;;;;;;;11.00;7.58;;;;;;;5.06;44.72;98405.01;1731673;82;21089;-64
2021/12/24 11:15:59;;;;;;;9.00;7.00;;;;;;;5.06;44.69;98397.95;1738415;82;21502;-63
2021/12/24 11:18:28;;;;;;;10.43;7.33;;;;;;;5.05;44.70;98408.14;1735334;82;21966;-65
2021/12/24 11:21:10;;;;;;;9.25;7.30;;;;;;;5.06;44.69;98395.80;1731964;82;21117;-62
2021/12/24 11:23:39;;;;;;;10.98;7.87;;;;;;;5.06;44.65;98405.85;1728572;82;21058;-64
2021/12/24 11:26:14;;;;;;;8.23;6.90;;;;;;;5.06;44.65;98405.85;1740143;82;21521;-62
2021/12/24 11:28:41;;;;;;;9.95;7.40;;;;;;;5.07;44.62;98402.72;1723164;81;21017;-62
2021/12/24 11:31:11;;;;;;;9.90;7.37;;;;;;;5.06;44.61;98407.64;1752066;79;21080;-64
2021/12/24 11:33:39;;;;;;;9.25;7.03;;;;;;;5.07;44.61;98398.27;1752718;81;21045;-65
2021/12/24 11:36:07;;;;;;;8.73;7.05;;;;;;;5.07;44.56;98399.58;1752361;80;21550;-63
2021/12/24 11:38:45;;;;;;;8.10;6.90;;;;;;;5.08;44.56;98384.13;1728761;81;21077;-62
2021/12/24 11:41:15;;;;;;;8.58;6.70;;;;;;;5.08;44.53;98368.34;1747346;81;21545;-64
2021/12/24 11:43:48;;;;;;;10.28;7.45;;;;;;;5.08;44.52;98380.19;1743380;81;21126;-63
2021/12/24 11:46:16;;;;;;;;;;;;;;;5.09;44.51;98364.70;1747292;81;21050;-64
2021/12/24 11:48:45;;;;;;;9.20;6.83;;;;;;;5.09;44.51;98375.23;1748051;81;20160;-62
2021/12/24 11:51:23;;;;;;;8.85;6.85;;;;;;;5.06;44.53;98358.47;1754722;81;21061;-62
2021/12/24 11:53:51;;;;;;;8.80;6.87;;;;;;;5.07;44.52;98354.83;1754049;79;21068;-64
2021/12/24 11:56:20;;;;;;;8.95;6.85;;;;;;;5.06;44.49;98359.79;1745172;81;21538;-64
2021/12/24 11:58:53;;;;;;;8.75;6.72;;;;;;;5.07;44.48;98354.83;1738751;81;21092;-64
2021/12/24 12:01:24;;;;;;;8.95;7.05;;;;;;;5.08;44.48;98345.12;1760072;81;28346;-63
2021/12/24 12:03:55;;;;;;;8.65;7.25;;;;;;;5.08;44.46;98341.17;1761647;81;21092;-64
2021/12/24 12:06:27;;;;;;;9.20;7.00;;;;;;;5.08;44.46;98349.91;1769442;79;21021;-62
2021/12/24 12:09:00;;;;;;;10.40;7.15;;;;;;;5.08;44.45;98352.55;1760008;81;21143;-63
2021/12/24 12:11:30;;;;;;;8.08;6.40;;;;;;;5.09;44.43;98342.83;1753926;79;21110;-63
2021/12/24 12:14:14;;;;;;;7.55;6.25;;;;;;;5.09;44.39;98337.56;1753815;81;21045;-63
2021/12/24 12:16:54;;;;;;;8.28;6.62;;;;;;;5.08;44.42;98336.75;1750210;81;27258;-64
2021/12/24 12:19:31;;;;;;;8.15;7.08;;;;;;;5.08;44.40;98331.95;1751436;81;21020;-64
2021/12/24 12:22:32;;;;;;;8.88;7.10;;;;;;;5.08;44.40;98310.89;1774143;79;23283;-64
2021/12/24 12:25:06;;;;;;;7.92;7.12;;;;;;;5.07;44.40;98322.43;1735010;81;21527;-64
2021/12/24 12:27:55;;;;;;;8.78;6.80;;;;;;;5.06;44.41;98317.67;1744637;80;21013;-65
2021/12/24 12:30:42;;;;;;;7.95;6.28;;;;;;;5.06;44.42;98320.77;1773117;80;21012;-64
2021/12/24 12:33:31;;;;;;;8.50;6.80;;;;;;;5.05;44.41;98312.06;1799040;78;21032;-64
2021/12/24 12:35:59;;;;;;;8.05;6.62;;;;;;;5.05;44.42;98318.64;1811365;78;21122;-63
2021/12/24 12:38:39;;;;;;;8.73;7.05;;;;;;;5.04;44.41;98310.91;1806001;78;21018;-64
2021/12/24 12:41:39;;;;;;;7.35;5.67;;;;;;;5.04;44.46;98317.48;1806704;78;21061;-64
2021/12/24 12:44:10;;;;;;;8.25;6.85;;;;;;;5.03;44.42;98329.02;1806933;78;21029;-65
2021/12/24 12:46:41;;;;;;;7.80;6.35;;;;;;;5.03;44.42;98329.84;1806370;79;21514;-66
2021/12/24 12:49:11;;;;;;;9.25;6.83;;;;;;;5.03;44.43;98323.26;1801111;79;21153;-64
2021/12/24 12:51:49;;;;;;;10.40;7.42;;;;;;;5.02;44.58;98322.95;1800605;78;21009;-64
2021/12/24 12:54:46;;;;;;;7.78;6.55;;;;;;;5.03;45.02;98306.66;1780684;79;21182;-64
2021/12/24 12:57:31;;;;;;;9.00;7.45;;;;;;;5.02;45.10;98278.67;1807020;78;21034;-63
2021/12/24 13:00:18;;;;;;;8.48;6.70;;;;;;;5.01;45.12;98280.99;1808769;79;21299;-64
2021/12/24 13:05:47;;;;;;;8.30;6.30;;;;;;;5.01;45.11;98275.73;1804820;78;21072;-62
2021/12/24 13:08:17;;;;;;;8.53;6.67;;;;;;;5.00;45.09;98253.83;1806284;79;21037;-65
2021/12/24 13:11:09;;;;;;;8.80;6.78;;;;;;;4.99;45.07;98248.77;1816478;78;20974;-63
2021/12/24 13:13:55;;;;;;;8.63;6.78;;;;;;;5.00;45.04;98247.75;1818883;78;21040;-65
2021/12/24 13:16:44;;;;;;;9.05;6.80;;;;;;;4.98;45.00;98227.36;1818352;78;21549;-63
2021/12/24 13:24:57;;;;;;;8.38;6.40;;;;;;;4.97;44.94;98209.95;1802479;78;21065;-63
2021/12/24 13:27:34;;;;;;;8.68;6.55;;;;;;;4.95;44.94;98204.84;1798955;78;21545;-62
2021/12/24 13:30:23;;;;;;;8.93;6.92;;;;;;;4.95;44.92;98194.32;1802435;78;21720;-63
2021/12/24 13:32:56;;;;;;;9.83;7.30;;;;;;;4.97;44.92;98204.69;1789686;78;21035;-63
2021/12/24 13:35:29;;;;;;;8.33;6.47;;;;;;;4.96;44.86;98210.42;1793465;78;21045;-64
2021/12/24 13:37:55;;;;;;;9.63;7.25;;;;;;;4.96;44.86;98209.11;1798382;78;21083;-62